Terminal Aerodrome Forecast
Issued by NWS Midland/Odessa, TX

Home | Current Version | Previous Version | Text Only | Print | Product List | Glossary On
Versions: 1 2 3 4 5 6 7 8 9 10 11 12 13 14 15 16 17 18 19 20 21
000
FTUS44 KMAF 070228 CCB
TAFMAF
TAF COR
KMAF 070228Z 0702/0724 16015KT P6SM SCT060 OVC200
      TEMPO 0708/0712 VRB20G30KT 6SM TSRA BKN050CB
     FM071200 15011KT P6SM FEW050 OVC250
     FM071500 13009KT P6SM OVC009
     FM071900 03008KT P6SM SCT029 OVC250=

USA.gov is the U.S. government's official web portal to all federal, state and local government web resources and services.